createdAt,value
2023-04-02T00:01:01.040Z,17.20
2023-04-02T00:03:44.082Z,17.20
2023-04-02T00:06:40.164Z,17.10
2023-04-02T00:09:13.741Z,17.10
2023-04-02T00:11:48.710Z,17.00
2023-04-02T00:14:36.447Z,17.00
2023-04-02T00:17:06.505Z,16.90
2023-04-02T00:19:48.900Z,16.90
2023-04-02T00:22:22.281Z,16.90
2023-04-02T00:24:55.055Z,16.90
2023-04-02T00:27:22.664Z,16.90
2023-04-02T00:29:52.903Z,16.90
2023-04-02T00:32:33.060Z,16.80
2023-04-02T00:35:01.050Z,16.80
2023-04-02T00:37:38.883Z,16.80
2023-04-02T00:40:16.987Z,16.80
2023-04-02T00:42:44.915Z,16.80
2023-04-02T00:45:29.058Z,16.80
2023-04-02T00:47:58.699Z,16.80
2023-04-02T00:50:34.891Z,16.80
2023-04-02T00:53:11.436Z,16.80
2023-04-02T00:55:41.827Z,16.80
2023-04-02T00:58:30.117Z,16.80
2023-04-02T01:00:59.211Z,16.80
2023-04-02T01:03:35.181Z,16.70
2023-04-02T01:06:10.823Z,16.70
2023-04-02T01:08:43.515Z,16.70
2023-04-02T01:11:39.495Z,16.70
2023-04-02T01:14:12.954Z,16.70
2023-04-02T01:17:02.606Z,16.70
2023-04-02T01:19:54.150Z,16.70
2023-04-02T01:22:30.995Z,16.60
2023-04-02T01:25:02.207Z,16.60
2023-04-02T01:27:38.866Z,16.60
2023-04-02T01:30:07.851Z,16.50
2023-04-02T01:32:35.994Z,16.50
2023-04-02T01:35:03.457Z,16.50
2023-04-02T01:37:46.874Z,16.50
2023-04-02T01:40:38.881Z,16.50
2023-04-02T01:43:21.281Z,16.50
2023-04-02T01:45:50.118Z,16.40
2023-04-02T01:48:24.870Z,16.40
2023-04-02T01:50:55.677Z,16.40
2023-04-02T01:53:26.041Z,16.30
2023-04-02T01:55:56.904Z,16.30
2023-04-02T01:58:27.732Z,16.30
2023-04-02T02:01:16.795Z,16.20
2023-04-02T02:03:45.443Z,16.20
2023-04-02T02:06:16.275Z,16.20
2023-04-02T02:08:49.318Z,16.10
2023-04-02T02:11:22.976Z,16.10
2023-04-02T02:14:12.178Z,16.10
2023-04-02T02:16:42.068Z,16.00
2023-04-02T02:19:39.844Z,16.00
2023-04-02T02:22:42.134Z,16.00
2023-04-02T02:25:36.474Z,15.90
2023-04-02T02:28:11.174Z,15.90
2023-04-02T02:30:59.045Z,15.90
2023-04-02T02:33:43.937Z,15.80
2023-04-02T02:36:26.220Z,15.70
2023-04-02T02:39:14.114Z,15.70
2023-04-02T02:41:50.473Z,15.60
2023-04-02T02:44:27.325Z,15.60
2023-04-02T02:47:03.702Z,15.60
2023-04-02T02:49:36.330Z,15.50
2023-04-02T02:52:19.563Z,15.50
2023-04-02T02:55:16.741Z,15.40
2023-04-02T02:58:07.744Z,15.40
2023-04-02T03:00:43.793Z,15.30
2023-04-02T03:03:23.281Z,15.20
2023-04-02T03:06:02.251Z,15.20
2023-04-02T03:08:40.836Z,15.20
2023-04-02T03:11:35.781Z,15.20
2023-04-02T03:14:34.558Z,15.20
2023-04-02T03:17:26.658Z,15.20
2023-04-02T03:20:27.279Z,15.10
2023-04-02T03:23:13.421Z,15.10
2023-04-02T03:25:56.416Z,15.00
2023-04-02T03:28:29.431Z,15.00
2023-04-02T03:31:11.763Z,15.00
2023-04-02T03:34:18.205Z,15.00
2023-04-02T03:37:05.513Z,14.90
2023-04-02T03:39:39.230Z,14.90
2023-04-02T03:42:09.836Z,14.90
2023-04-02T03:44:52.913Z,14.90
2023-04-02T03:47:41.015Z,14.80
2023-04-02T03:50:14.221Z,14.70
2023-04-02T03:52:44.702Z,14.70
2023-04-02T03:55:28.845Z,14.70
2023-04-02T03:58:28.591Z,14.70
2023-04-02T04:01:12.532Z,14.60
2023-04-02T04:03:47.819Z,14.60
2023-04-02T04:06:24.795Z,14.50
2023-04-02T04:09:08.110Z,14.40
2023-04-02T04:11:39.128Z,14.40
2023-04-02T04:14:33.241Z,14.30
2023-04-02T04:17:30.350Z,14.30
2023-04-02T04:20:22.147Z,14.20
2023-04-02T04:22:56.145Z,14.20
2023-04-02T04:25:35.486Z,14.20
2023-04-02T04:28:24.986Z,14.10
2023-04-02T04:31:06.997Z,14.00
2023-04-02T04:33:43.802Z,14.00
2023-04-02T04:36:31.573Z,13.90
2023-04-02T04:39:21.886Z,13.80
2023-04-02T04:41:51.247Z,13.80
2023-04-02T04:44:39.811Z,13.80
2023-04-02T04:47:31.192Z,13.80
2023-04-02T04:50:11.643Z,13.80
2023-04-02T04:52:42.798Z,13.70
2023-04-02T04:55:35.253Z,13.70
2023-04-02T04:58:26.211Z,13.70
2023-04-02T05:01:01.866Z,13.60
2023-04-02T05:03:40.581Z,13.60
2023-04-02T05:06:16.378Z,13.70
2023-04-02T05:08:49.236Z,13.70
2023-04-02T05:11:46.290Z,13.70
2023-04-02T05:14:37.549Z,13.60
2023-04-02T05:17:15.816Z,13.70
2023-04-02T05:19:45.507Z,13.70
2023-04-02T05:22:47.801Z,13.80
2023-04-02T05:25:30.543Z,13.80
2023-04-02T05:28:18.399Z,13.90
2023-04-02T05:30:54.523Z,13.90
2023-04-02T05:33:29.642Z,14.00
2023-04-02T05:36:12.951Z,14.00
2023-04-02T05:38:49.832Z,14.10
2023-04-02T05:41:39.537Z,14.10
2023-04-02T05:44:11.309Z,14.20
2023-04-02T05:46:45.884Z,14.30
2023-04-02T05:49:49.250Z,14.40
2023-04-02T05:52:21.840Z,14.40
2023-04-02T05:55:12.378Z,14.50
2023-04-02T05:58:13.496Z,14.60
2023-04-02T06:00:52.115Z,14.80
2023-04-02T06:03:46.323Z,14.90
2023-04-02T06:06:57.110Z,15.00
2023-04-02T06:09:30.817Z,15.10
2023-04-02T06:12:17.866Z,15.20
2023-04-02T06:14:46.259Z,15.30
2023-04-02T06:17:17.094Z,15.40
2023-04-02T06:19:45.970Z,15.50
2023-04-02T06:22:37.134Z,15.70
2023-04-02T06:25:25.937Z,15.90
2023-04-02T06:27:57.407Z,16.00
2023-04-02T06:30:32.975Z,16.20
2023-04-02T06:33:01.482Z,16.30
2023-04-02T06:35:30.460Z,16.40
2023-04-02T06:38:07.248Z,16.60
2023-04-02T06:40:44.988Z,16.70
2023-04-02T06:43:44.929Z,16.70
2023-04-02T06:46:42.557Z,16.90
2023-04-02T06:49:38.831Z,17.10
2023-04-02T06:52:18.480Z,17.10
2023-04-02T06:54:46.703Z,17.30
2023-04-02T06:57:14.561Z,17.40
2023-04-02T06:59:44.893Z,17.40
2023-04-02T07:02:16.762Z,17.30
2023-04-02T07:04:44.170Z,17.30
2023-04-02T07:07:11.658Z,17.30
2023-04-02T07:09:42.914Z,17.10
2023-04-02T07:12:14.534Z,17.00
2023-04-02T07:14:43.903Z,17.10
2023-04-02T07:17:17.998Z,17.30
2023-04-02T07:19:49.768Z,17.50
2023-04-02T07:22:20.721Z,17.60
2023-04-02T07:24:54.914Z,17.70
2023-04-02T07:27:22.339Z,17.70
2023-04-02T07:29:49.598Z,17.80
2023-04-02T07:32:17.500Z,17.90
2023-04-02T07:34:44.672Z,18.10
2023-04-02T07:37:14.918Z,18.20
2023-04-02T07:39:42.422Z,18.30
2023-04-02T07:42:10.355Z,18.40
2023-04-02T07:44:37.739Z,18.60
2023-04-02T07:47:05.035Z,18.60
2023-04-02T07:49:32.398Z,18.70
2023-04-02T07:51:59.613Z,18.60
2023-04-02T07:54:27.464Z,18.80
2023-04-02T07:56:54.690Z,18.90
2023-04-02T07:59:22.331Z,18.90
2023-04-02T08:01:49.919Z,19.20
2023-04-02T08:04:23.017Z,19.30
2023-04-02T08:06:50.933Z,19.30
2023-04-02T08:09:18.198Z,19.70
2023-04-02T08:11:46.700Z,20.20
2023-04-02T08:14:14.788Z,20.40
2023-04-02T08:16:52.813Z,20.80
2023-04-02T08:19:20.809Z,21.20
2023-04-02T08:21:51.583Z,21.00
2023-04-02T08:24:19.547Z,21.40
2023-04-02T08:26:48.314Z,21.40
2023-04-02T08:29:16.013Z,20.60
2023-04-02T08:31:43.272Z,20.40
2023-04-02T08:34:11.134Z,20.00
2023-04-02T08:36:41.363Z,20.10
2023-04-02T08:39:12.014Z,20.00
2023-04-02T08:41:58.501Z,19.70
2023-04-02T08:45:23.000Z,19.60
2023-04-02T08:47:55.597Z,19.70
2023-04-02T08:50:33.654Z,20.10
2023-04-02T08:53:05.031Z,20.20
2023-04-02T08:55:37.193Z,20.20
2023-04-02T08:58:15.713Z,20.20
2023-04-02T09:00:46.796Z,20.20
2023-04-02T09:03:21.321Z,20.20
2023-04-02T09:05:51.085Z,20.20
2023-04-02T09:08:25.001Z,20.20
2023-04-02T09:11:02.587Z,20.20
2023-04-02T09:13:33.176Z,20.20
2023-04-02T09:16:15.006Z,20.40
2023-04-02T09:18:44.181Z,20.70
2023-04-02T09:21:38.853Z,20.80
2023-04-02T09:24:06.560Z,21.00
2023-04-02T09:26:34.295Z,21.20
2023-04-02T09:29:24.865Z,21.30
2023-04-02T09:32:31.091Z,21.50
2023-04-02T09:35:36.585Z,21.40
2023-04-02T09:38:24.748Z,21.20
2023-04-02T09:41:18.740Z,20.90
2023-04-02T09:43:46.449Z,20.90
2023-04-02T09:46:13.734Z,20.80
2023-04-02T09:48:55.779Z,20.70
2023-04-02T09:51:25.871Z,20.60
2023-04-02T09:54:14.975Z,20.60
2023-04-02T09:57:02.883Z,20.70
2023-04-02T09:59:30.290Z,20.70
2023-04-02T10:02:03.525Z,20.60
2023-04-02T10:04:47.989Z,20.50
2023-04-02T10:07:38.125Z,20.30
2023-04-02T10:10:44.966Z,20.40
2023-04-02T10:13:40.730Z,20.50
2023-04-02T10:16:33.300Z,20.50
2023-04-02T10:19:03.630Z,20.60
2023-04-02T10:21:37.593Z,20.70
2023-04-02T10:24:27.689Z,20.90
2023-04-02T10:27:22.733Z,20.80
2023-04-02T10:30:02.483Z,20.70
2023-04-02T10:32:38.968Z,20.70
2023-04-02T10:35:18.763Z,20.60
2023-04-02T10:37:46.363Z,20.60
2023-04-02T10:40:27.220Z,20.30
2023-04-02T10:43:30.993Z,20.40
2023-04-02T10:46:32.803Z,20.50
2023-04-02T10:49:27.889Z,20.70
2023-04-02T10:52:00.123Z,20.90
2023-04-02T10:54:47.025Z,21.20
2023-04-02T10:57:17.142Z,21.60
2023-04-02T10:59:49.468Z,21.30
2023-04-02T11:03:01.846Z,21.10
2023-04-02T11:05:29.253Z,21.10
2023-04-02T11:08:02.412Z,21.20
2023-04-02T11:10:34.298Z,21.40
2023-04-02T11:13:16.957Z,21.30
2023-04-02T11:15:44.994Z,21.10
2023-04-02T11:18:34.361Z,21.10
2023-04-02T11:21:07.388Z,21.00
2023-04-02T11:23:59.841Z,21.00
2023-04-02T11:26:33.149Z,20.90
2023-04-02T11:29:21.320Z,20.90
2023-04-02T11:31:51.219Z,20.90
2023-04-02T11:34:41.484Z,21.10
2023-04-02T11:37:36.743Z,21.20
2023-04-02T11:40:15.785Z,21.30
2023-04-02T11:42:48.479Z,21.10
2023-04-02T11:45:24.700Z,20.60
2023-04-02T11:48:04.612Z,20.40
2023-04-02T11:50:32.968Z,20.50
2023-04-02T11:53:04.609Z,20.10
2023-04-02T11:55:36.601Z,20.10
2023-04-02T11:58:30.290Z,20.20
2023-04-02T12:01:09.109Z,20.90
2023-04-02T12:03:55.004Z,21.70
2023-04-02T12:06:46.993Z,22.30
2023-04-02T12:09:31.758Z,23.00
2023-04-02T12:12:02.182Z,23.20
2023-04-02T12:14:47.525Z,23.60
2023-04-02T12:17:47.100Z,24.10
2023-04-02T12:20:22.053Z,24.20
2023-04-02T12:22:55.184Z,24.10
2023-04-02T12:25:22.468Z,22.90
2023-04-02T12:28:06.773Z,22.20
2023-04-02T12:30:34.581Z,22.80
2023-04-02T12:33:20.410Z,22.60
2023-04-02T12:35:50.759Z,22.80
2023-04-02T12:38:29.716Z,22.00
2023-04-02T12:41:06.061Z,21.90
2023-04-02T12:43:35.435Z,21.70
2023-04-02T12:46:07.909Z,21.60
2023-04-02T12:48:36.476Z,21.70
2023-04-02T12:51:04.930Z,21.70
2023-04-02T12:53:37.885Z,21.50
2023-04-02T12:56:05.950Z,21.00
2023-04-02T12:58:42.791Z,21.10
2023-04-02T13:01:21.320Z,21.10
2023-04-02T13:04:12.464Z,20.90
2023-04-02T13:06:41.659Z,20.70
2023-04-02T13:09:39.423Z,20.90
2023-04-02T13:12:07.623Z,20.80
2023-04-02T13:14:34.973Z,20.50
2023-04-02T13:17:02.274Z,20.60
2023-04-02T13:19:34.207Z,20.60
2023-04-02T13:22:02.973Z,20.70
2023-04-02T13:24:32.941Z,20.60
2023-04-02T13:27:02.351Z,19.80
2023-04-02T13:29:32.857Z,19.60
2023-04-02T13:32:02.440Z,19.70
2023-04-02T13:34:30.049Z,19.70
2023-04-02T13:36:57.702Z,19.70
2023-04-02T13:39:25.572Z,19.70
2023-04-02T13:41:57.418Z,19.50
2023-04-02T13:44:37.679Z,19.40
2023-04-02T13:47:04.953Z,19.40
2023-04-02T13:49:32.370Z,19.30
2023-04-02T13:52:05.219Z,19.40
2023-04-02T13:54:44.474Z,19.70
2023-04-02T13:57:12.071Z,19.70
2023-04-02T13:59:39.278Z,19.70
2023-04-02T14:02:13.904Z,19.80
2023-04-02T14:04:51.130Z,19.80
2023-04-02T14:08:09.180Z,19.80
2023-04-02T14:11:00.325Z,19.40
2023-04-02T14:13:54.630Z,19.60
2023-04-02T14:16:42.350Z,19.60
2023-04-02T14:19:21.621Z,19.60
2023-04-02T14:22:09.992Z,19.60
2023-04-02T14:24:49.301Z,19.60
2023-04-02T14:27:40.506Z,19.70
2023-04-02T14:30:26.585Z,19.60
2023-04-02T14:33:05.551Z,19.30
2023-04-02T14:35:37.379Z,19.50
2023-04-02T14:38:43.457Z,19.50
2023-04-02T14:41:17.944Z,19.50
2023-04-02T14:43:54.585Z,19.20
2023-04-02T14:46:26.902Z,19.10
2023-04-02T14:49:06.309Z,19.10
2023-04-02T14:51:47.572Z,19.20
2023-04-02T14:54:20.893Z,19.00
2023-04-02T14:56:52.380Z,18.80
2023-04-02T14:59:25.755Z,18.80
2023-04-02T15:02:00.686Z,18.90
2023-04-02T15:04:44.569Z,19.10
2023-04-02T15:07:21.171Z,19.10
2023-04-02T15:09:59.223Z,19.00
2023-04-02T15:12:32.645Z,19.20
2023-04-02T15:15:14.201Z,19.10
2023-04-02T15:17:41.576Z,18.90
2023-04-02T15:20:19.275Z,18.80
2023-04-02T15:23:07.068Z,18.70
2023-04-02T15:25:45.687Z,18.70
2023-04-02T15:28:54.692Z,18.90
2023-04-02T15:31:26.098Z,19.00
2023-04-02T15:34:05.972Z,19.10
2023-04-02T15:36:42.119Z,19.20
2023-04-02T15:39:13.063Z,19.20
2023-04-02T15:42:04.680Z,19.10
2023-04-02T15:44:33.575Z,18.90
2023-04-02T15:47:22.847Z,18.80
2023-04-02T15:50:03.910Z,18.80
2023-04-02T15:52:48.796Z,18.80
2023-04-02T15:55:34.782Z,18.70
2023-04-02T15:58:18.257Z,18.60
2023-04-02T16:01:03.933Z,18.60
2023-04-02T16:04:06.752Z,18.40
2023-04-02T16:06:53.393Z,18.40
2023-04-02T16:09:30.988Z,18.10
2023-04-02T16:12:14.287Z,18.00
2023-04-02T16:14:44.375Z,17.90
2023-04-02T16:17:36.647Z,17.90
2023-04-02T16:20:22.182Z,17.90
2023-04-02T16:23:02.462Z,17.80
2023-04-02T16:25:56.545Z,17.70
2023-04-02T16:28:55.450Z,17.70
2023-04-02T16:31:35.538Z,17.80
2023-04-02T16:34:05.845Z,17.80
2023-04-02T16:36:52.617Z,17.80
2023-04-02T16:39:30.488Z,17.70
2023-04-02T16:42:10.300Z,17.60
2023-04-02T16:44:58.996Z,17.50
2023-04-02T16:47:55.562Z,17.40
2023-04-02T16:50:53.386Z,17.30
2023-04-02T16:53:54.526Z,17.10
2023-04-02T16:56:57.801Z,17.10
2023-04-02T17:00:18.322Z,17.00
2023-04-02T17:03:11.685Z,17.00
2023-04-02T17:05:51.261Z,17.00
2023-04-02T17:08:32.820Z,17.00
2023-04-02T17:11:08.731Z,17.00
2023-04-02T17:14:06.402Z,17.00
2023-04-02T17:16:43.724Z,16.90
2023-04-02T17:19:14.633Z,16.90
2023-04-02T17:21:45.517Z,16.90
2023-04-02T17:24:21.747Z,16.90
2023-04-02T17:26:54.546Z,16.90
2023-04-02T17:29:38.862Z,16.90
2023-04-02T17:32:17.421Z,16.90
2023-04-02T17:34:44.761Z,16.90
2023-04-02T17:37:29.624Z,16.90
2023-04-02T17:40:05.571Z,16.90
2023-04-02T17:42:32.716Z,16.80
2023-04-02T17:45:19.959Z,16.80
2023-04-02T17:48:00.848Z,16.80
2023-04-02T17:50:56.083Z,16.80
2023-04-02T17:53:29.281Z,16.90
2023-04-02T17:56:07.124Z,16.90
2023-04-02T17:59:17.632Z,16.80
2023-04-02T18:02:19.480Z,16.70
2023-04-02T18:04:58.370Z,16.70
2023-04-02T18:07:37.316Z,16.50
2023-04-02T18:10:31.204Z,16.30
2023-04-02T18:13:15.845Z,16.20
2023-04-02T18:15:43.063Z,16.10
2023-04-02T18:18:43.454Z,16.00
2023-04-02T18:21:25.760Z,15.90
2023-04-02T18:23:55.887Z,15.80
2023-04-02T18:26:45.187Z,15.70
2023-04-02T18:29:12.522Z,15.60
2023-04-02T18:31:57.476Z,15.60
2023-04-02T18:34:49.116Z,15.50
2023-04-02T18:37:38.898Z,15.40
2023-04-02T18:40:22.223Z,15.40
2023-04-02T18:43:02.955Z,15.30
2023-04-02T18:45:39.603Z,15.20
2023-04-02T18:48:29.021Z,14.80
2023-04-02T18:50:58.618Z,14.50
2023-04-02T18:53:29.458Z,14.00
2023-04-02T18:55:58.351Z,13.60
2023-04-02T18:58:31.645Z,13.40
2023-04-02T19:00:59.386Z,13.30
2023-04-02T19:03:53.007Z,13.10
2023-04-02T19:06:41.797Z,13.00
2023-04-02T19:09:20.842Z,12.90
2023-04-02T19:11:49.022Z,12.80
2023-04-02T19:14:21.482Z,12.80
2023-04-02T19:17:27.328Z,12.80
2023-04-02T19:20:11.108Z,12.80
2023-04-02T19:22:47.195Z,12.80
2023-04-02T19:25:52.058Z,12.70
2023-04-02T19:28:28.807Z,12.70
2023-04-02T19:31:11.544Z,12.70
2023-04-02T19:33:59.658Z,12.70
2023-04-02T19:36:58.985Z,12.60
2023-04-02T19:39:47.012Z,12.60
2023-04-02T19:42:20.493Z,12.70
2023-04-02T19:44:51.313Z,12.60
2023-04-02T19:47:20.073Z,12.60
2023-04-02T19:49:47.236Z,12.60
2023-04-02T19:52:14.570Z,12.60
2023-04-02T19:54:42.010Z,12.60
2023-04-02T19:57:14.254Z,12.60
2023-04-02T19:59:41.910Z,12.60
2023-04-02T20:02:11.062Z,12.60
2023-04-02T20:04:42.649Z,12.60
2023-04-02T20:07:09.832Z,12.60
2023-04-02T20:09:37.024Z,12.50
2023-04-02T20:12:04.488Z,12.60
2023-04-02T20:14:31.701Z,12.60
2023-04-02T20:16:58.866Z,12.60
2023-04-02T20:19:26.207Z,12.60
2023-04-02T20:21:53.629Z,12.60
2023-04-02T20:24:20.857Z,12.60
2023-04-02T20:26:47.993Z,12.60
2023-04-02T20:29:15.293Z,12.50
2023-04-02T20:31:42.555Z,12.60
2023-04-02T20:34:10.213Z,12.60
2023-04-02T20:36:37.647Z,12.50
2023-04-02T20:39:07.959Z,12.50
2023-04-02T20:41:35.279Z,12.60
2023-04-02T20:44:03.140Z,12.50
2023-04-02T20:46:30.383Z,12.50
2023-04-02T20:48:57.842Z,12.50
2023-04-02T20:51:26.081Z,12.50
2023-04-02T20:53:53.968Z,12.50
2023-04-02T20:56:23.448Z,12.50
2023-04-02T20:58:51.269Z,12.50
2023-04-02T21:01:22.891Z,12.50
2023-04-02T21:03:57.767Z,12.50
2023-04-02T21:06:28.064Z,12.50
2023-04-02T21:08:55.552Z,12.50
2023-04-02T21:11:23.192Z,12.50
2023-04-02T21:13:51.055Z,12.50
2023-04-02T21:16:20.994Z,12.40
2023-04-02T21:18:51.073Z,12.40
2023-04-02T21:21:19.372Z,12.40
2023-04-02T21:23:46.804Z,12.40
2023-04-02T21:26:18.182Z,12.40
2023-04-02T21:28:46.118Z,12.40
2023-04-02T21:31:16.882Z,12.40
2023-04-02T21:33:46.853Z,12.30
2023-04-02T21:36:21.804Z,12.30
2023-04-02T21:38:51.849Z,12.30
2023-04-02T21:41:37.181Z,12.40
2023-04-02T21:44:06.530Z,12.30
2023-04-02T21:46:39.659Z,12.30
2023-04-02T21:49:08.531Z,12.30
2023-04-02T21:51:37.736Z,12.20
2023-04-02T21:54:05.438Z,12.30
2023-04-02T21:56:41.199Z,12.30
2023-04-02T21:59:10.251Z,12.30
2023-04-02T22:01:40.672Z,12.40
2023-04-02T22:04:09.609Z,12.30
2023-04-02T22:06:40.475Z,12.30
2023-04-02T22:09:11.600Z,12.30
2023-04-02T22:11:42.326Z,12.30
2023-04-02T22:14:09.703Z,12.50
2023-04-02T22:16:38.279Z,12.50
2023-04-02T22:19:08.892Z,12.60
2023-04-02T22:21:37.428Z,12.60
2023-04-02T22:24:06.574Z,12.60
2023-04-02T22:26:34.624Z,12.60
2023-04-02T22:29:02.674Z,12.60
2023-04-02T22:31:31.606Z,12.60
2023-04-02T22:33:59.737Z,12.70
2023-04-02T22:36:28.974Z,12.70
2023-04-02T22:38:57.490Z,12.70
2023-04-02T22:41:27.591Z,12.60
2023-04-02T22:43:59.072Z,12.60
2023-04-02T22:46:28.117Z,12.60
2023-04-02T22:48:55.947Z,12.50
2023-04-02T22:51:24.340Z,12.50
2023-04-02T22:53:54.350Z,12.50
2023-04-02T22:56:27.832Z,12.50
2023-04-02T22:58:55.187Z,12.50
2023-04-02T23:01:31.914Z,12.50
2023-04-02T23:03:59.549Z,12.50
2023-04-02T23:06:27.976Z,12.50
2023-04-02T23:08:55.557Z,12.60
2023-04-02T23:11:27.884Z,12.60
2023-04-02T23:13:56.940Z,12.60
2023-04-02T23:16:26.982Z,12.60
2023-04-02T23:18:55.622Z,12.60
2023-04-02T23:21:24.050Z,12.60
2023-04-02T23:23:51.561Z,12.60
2023-04-02T23:26:29.700Z,12.60
2023-04-02T23:28:58.228Z,12.60
2023-04-02T23:31:25.598Z,12.60
2023-04-02T23:33:53.270Z,12.60
2023-04-02T23:36:22.399Z,12.60
2023-04-02T23:38:55.938Z,12.60
2023-04-02T23:41:26.878Z,12.60
2023-04-02T23:43:56.031Z,12.60
2023-04-02T23:46:24.186Z,12.60
2023-04-02T23:48:52.320Z,12.60
2023-04-02T23:51:19.830Z,12.50
2023-04-02T23:53:48.594Z,12.60
2023-04-02T23:56:16.072Z,12.60
2023-04-02T23:58:43.389Z,12.60
